Strongs, Michigan
Current Conditions -  °F | °C
As of 2:14 PM on Friday 21 Nov 2014 (Local Time) from KERY Reporting Station
Clear Clear  
Wind Chill:   Ceiling: Unl
Heat Index: 22°   Visibility: 10mi
Dew Point: 14°   Wind: 17mph
Humidity: 70%   Direction: 200°SSW
Pressure: 30.2"   Gusts: 21mph
Location:  46.36°N, 84.97°W
Report Text: KERY 211914Z AUTO 20015G18KT 10SM CLR M05/M10 A3020 RMK AO2 T10531100
Loading
Personal Weather Stations






























Interactive Weather Map New forecast layout! Learn more

10-Day Weather Forecast

Advertisements
Track Severe Weather on mobile